Time;durP1;ratioP1;P1;durP2;ratioP2;P2;SDS_P1;SDS_P2;PMS_P1;PMS_P2;Temp;Humidity;BMP_temperature;BMP_pressure;BME280_temperature;BME280_humidity;BME280_pressure;Samples;Min_cycle;Max_cycle;Signal;HPM_P1;HPM_P2
2022/04/18 00:00:57;;;;;;;;;;;;;;;25.74;35.02;94247.88;5046007;28;9360;-60
2022/04/18 00:03:23;;;;;;;;;;;;;;;25.74;34.71;94238.88;5036088;28;7796;-60
2022/04/18 00:05:51;;;;;;;;;;;;;;;25.72;34.83;94239.41;5039029;28;7475;-60
2022/04/18 00:08:22;;;;;;;;;;;;;;;25.72;34.48;94236.63;5038980;28;7094;-60
2022/04/18 00:10:48;;;;;;;;;;;;;;;25.71;34.74;94224.13;5035332;28;9439;-60
2022/04/18 00:13:25;;;;;;;;;;;;;;;25.71;34.64;94221.38;5052723;28;7079;-60
2022/04/18 00:16:00;;;;;;;;;;;;;;;25.70;35.26;94221.88;5036188;28;9191;-60
2022/04/18 00:18:32;;;;;;;;;;;;;;;25.69;35.09;94223.88;5041078;28;9427;-60
2022/04/18 00:21:18;;;;;;;;;;;;;;;25.68;35.19;94214.16;5051617;28;9035;-60
2022/04/18 00:23:44;;;;;;;;;;;;;;;25.70;34.43;94221.88;5042724;28;7360;-60
2022/04/18 00:26:11;;;;;;;;;;;;;;;25.69;35.51;94214.88;5040966;28;7812;-60
2022/04/18 00:28:39;;;;;;;;;;;;;;;25.68;34.44;94216.91;5048835;28;8761;-60
2022/04/18 00:31:05;;;;;;;;;;;;;;;25.67;35.04;94212.63;5053159;28;9050;-60
2022/04/18 00:33:32;;;;;;;;;;;;;;;25.66;34.37;94205.66;5041857;28;7301;-60
2022/04/18 00:35:58;;;;;;;;;;;;;;;25.65;34.71;94214.41;5039656;28;7440;-60
2022/04/18 00:38:37;;;;;;;;;;;;;;;25.62;34.86;94202.41;5043724;28;7810;-60
2022/04/18 00:41:13;;;;;;;;;;;;;;;25.63;35.03;94192.16;5048174;28;7131;-60
2022/04/18 00:43:48;;;;;;;;;;;;;;;25.64;34.74;94205.44;5045288;28;9079;-60
2022/04/18 00:46:19;;;;;;;;;;;;;;;25.63;35.22;94203.91;5051476;28;7147;-60
2022/04/18 00:48:57;;;;;;;;;;;;;;;25.63;35.29;94200.41;5041881;28;9093;-60
2022/04/18 00:51:31;;;;;;;;;;;;;;;25.59;34.96;94188.94;5035704;28;6997;-60
2022/04/18 00:54:03;;;;;;;;;;;;;;;25.61;34.51;94194.66;5042203;28;9171;-60
2022/04/18 00:56:40;;;;;;;;;;;;;;;25.60;34.89;94191.16;5033904;28;7325;-60
2022/04/18 00:59:07;;;;;;;;;;;;;;;25.61;34.74;94191.91;5047456;28;8851;-59
2022/04/18 01:01:36;;;;;;;;;;;;;;;25.59;34.79;94192.44;5049719;28;7249;-60
2022/04/18 01:04:02;;;;;;;;;;;;;;;25.58;34.97;94185.44;5036285;28;8947;-60
2022/04/18 01:06:34;;;;;;;;;;;;;;;25.55;34.99;94175.47;5049054;28;7246;-60
2022/04/18 01:09:01;;;;;;;;;;;;;;;25.58;34.80;94173.69;5039907;28;9139;-60
2022/04/18 01:11:27;;;;;;;;;;;;;;;25.56;35.23;94174.19;5039233;28;9128;-60
2022/04/18 01:13:55;;;;;;;;;;;;;;;25.55;35.15;94172.72;5034058;28;9048;-60
2022/04/18 01:16:21;;;;;;;;;;;;;;;25.53;35.15;94161.47;5032331;28;9284;-60
2022/04/18 01:18:48;;;;;;;;;;;;;;;25.55;35.39;94160.94;5035186;28;9158;-60
2022/04/18 01:21:21;;;;;;;;;;;;;;;25.53;35.41;94166.97;5047492;28;7281;-59
2022/04/18 01:28:58;;;;;;;;;;;;;;;25.54;34.98;94160.19;5049028;28;7197;-60
2022/04/18 01:29:54;;;;;;;;;;;;;;;25.54;34.52;94159.44;5042866;28;7078;-60
2022/04/18 01:32:20;;;;;;;;;;;;;;;25.52;34.91;94150.94;5046969;28;8569;-60
2022/04/18 01:34:46;;;;;;;;;;;;;;;25.50;35.53;94148.72;5034154;28;7406;-60
2022/04/18 01:37:22;;;;;;;;;;;;;;;25.50;34.91;94145.97;5032446;28;8861;-59
2022/04/18 01:39:55;;;;;;;;;;;;;;;25.51;35.26;94146.72;5063111;28;7365;-60
2022/04/18 01:42:30;;;;;;;;;;;;;;;25.49;35.12;94140.97;5040150;28;9158;-60
2022/04/18 01:45:06;;;;;;;;;;;;;;;25.49;34.56;94147.22;5051164;28;9039;-60
2022/04/18 01:47:45;;;;;;;;;;;;;;;25.49;35.26;94140.97;5044197;28;9219;-59
2022/04/18 01:50:15;;;;;;;;;;;;;;;25.45;35.08;94146.75;5046993;28;9321;-60
2022/04/18 01:52:55;;;;;;;;;;;;;;;25.45;34.94;94140.53;5035008;28;8622;-59
2022/04/18 01:55:25;;;;;;;;;;;;;;;25.46;34.49;94137.25;5048299;28;7483;-60
2022/04/18 01:57:59;;;;;;;;;;;;;;;25.46;34.68;94139.25;5033277;28;8719;-60
2022/04/18 02:00:36;;;;;;;;;;;;;;;25.45;34.84;94135.00;5057495;28;7543;-60
2022/04/18 02:03:05;;;;;;;;;;;;;;;25.45;34.82;94138.50;5045808;28;8831;-60
2022/04/18 02:05:43;;;;;;;;;;;;;;;25.42;34.46;94132.00;5038797;28;8954;-60
2022/04/18 02:08:10;;;;;;;;;;;;;;;25.43;34.51;94141.00;5045452;28;9325;-59
2022/04/18 02:10:37;;;;;;;;;;;;;;;25.42;35.14;94131.28;5048742;28;9093;-59
2022/04/18 02:13:05;;;;;;;;;;;;;;;25.41;34.57;94132.50;5040016;28;9411;-60
2022/04/18 02:15:31;;;;;;;;;;;;;;;25.38;34.63;94131.53;5042539;28;9130;-60
2022/04/18 02:17:58;;;;;;;;;;;;;;;25.40;34.77;94128.28;5030635;28;7307;-59
2022/04/18 02:20:24;;;;;;;;;;;;;;;25.40;35.01;94129.00;5030194;28;9049;-60
2022/04/18 02:22:51;;;;;;;;;;;;;;;25.40;34.58;94126.25;5027781;28;7263;-60
2022/04/18 02:25:16;;;;;;;;;;;;;;;25.39;34.46;94133.03;5031191;28;9177;-60
2022/04/18 02:27:44;;;;;;;;;;;;;;;25.39;34.53;94132.28;5042010;28;7707;-59
2022/04/18 02:30:10;;;;;;;;;;;;;;;25.39;34.18;94126.75;5057186;28;8831;-59
2022/04/18 02:32:48;;;;;;;;;;;;;;;25.38;35.11;94136.31;5038023;28;8975;-59
2022/04/18 02:35:19;;;;;;;;;;;;;;;25.37;34.77;94137.56;5033793;28;7182;-60
2022/04/18 02:37:54;;;;;;;;;;;;;;;25.35;34.62;94131.81;5036698;28;7278;-59
2022/04/18 02:40:30;;;;;;;;;;;;;;;25.35;34.34;94132.56;5032611;28;7173;-60
2022/04/18 02:42:56;;;;;;;;;;;;;;;25.34;34.45;94130.31;5047499;28;7004;-60
2022/04/18 02:45:34;;;;;;;;;;;;;;;25.33;34.80;94129.59;5033557;28;8257;-60
2022/04/18 02:48:02;;;;;;;;;;;;;;;25.33;35.01;94134.34;5039201;28;8187;-60
2022/04/18 02:50:35;;;;;;;;;;;;;;;25.29;34.58;94123.59;5039161;28;9100;-60
2022/04/18 02:53:02;;;;;;;;;;;;;;;25.34;34.67;94130.31;5045705;28;7693;-60
2022/04/18 02:55:30;;;;;;;;;;;;;;;25.32;34.95;94127.31;5044434;28;7009;-60
2022/04/18 02:57:56;;;;;;;;;;;;;;;25.31;34.34;94123.09;5044435;28;7250;-59
2022/04/18 03:00:51;;;;;;;;;;;;;;;25.31;35.00;94131.34;5030762;28;6995;-59
2022/04/18 03:03:29;;;;;;;;;;;;;;;25.29;34.52;94123.59;5049320;28;6945;-59
2022/04/18 03:06:07;;;;;;;;;;;;;;;25.28;35.12;94122.13;5047541;28;7399;-59
2022/04/18 03:08:44;;;;;;;;;;;;;;;25.28;34.35;94121.38;5040605;28;9327;-59
2022/04/18 03:11:10;;;;;;;;;;;;;;;25.28;34.90;94121.38;5040610;28;9091;-60
2022/04/18 03:13:43;;;;;;;;;;;;;;;25.25;34.81;94112.13;5046447;28;7634;-60
2022/04/18 03:16:11;;;;;;;;;;;;;;;25.27;34.67;94120.63;5030103;28;8735;-59
2022/04/18 03:18:40;;;;;;;;;;;;;;;25.25;34.20;94123.13;5033232;28;7020;-60
2022/04/18 03:21:10;;;;;;;;;;;;;;;25.26;34.30;94129.41;5033643;28;7065;-60
2022/04/18 03:23:45;;;;;;;;;;;;;;;25.26;34.83;94126.63;5039953;28;9255;-60
2022/04/18 03:26:13;;;;;;;;;;;;;;;25.24;34.52;94124.41;5042984;28;9201;-59
2022/04/18 03:28:39;;;;;;;;;;;;;;;25.23;34.53;94127.66;5049235;28;7001;-59
2022/04/18 03:31:08;;;;;;;;;;;;;;;25.24;34.77;94127.16;5042133;28;9330;-60
2022/04/18 03:33:36;;;;;;;;;;;;;;;25.24;34.63;94127.16;5034536;28;8981;-59
2022/04/18 03:41:36;;;;;;;;;;;;;;;25.23;34.92;94124.91;5030485;28;8717;-59
2022/04/18 03:44:04;;;;;;;;;;;;;;;25.21;34.54;94124.69;5058913;28;8854;-59
2022/04/18 03:46:30;;;;;;;;;;;;;;;25.18;33.94;94117.47;5057221;28;8185;-60
2022/04/18 03:49:03;;;;;;;;;;;;;;;25.17;33.99;94122.22;5046985;28;7188;-59
2022/04/18 03:51:42;;;;;;;;;;;;;;;25.17;34.62;94122.22;5042759;28;8831;-60
2022/04/18 03:54:11;;;;;;;;;;;;;;;25.19;34.63;94132.69;5054553;28;7812;-60
2022/04/18 03:56:39;;;;;;;;;;;;;;;25.16;34.10;94133.75;5057278;28;7208;-59
2022/04/18 03:59:18;;;;;;;;;;;;;;;25.16;34.49;94134.50;5044910;28;9047;-59
2022/04/18 04:01:51;;;;;;;;;;;;;;;25.15;34.79;94141.25;5040460;28;7225;-59
2022/04/18 04:04:28;;;;;;;;;;;;;;;25.16;34.57;94139.25;5041211;28;8911;-59
2022/04/18 04:06:55;;;;;;;;;;;;;;;25.12;34.41;94133.28;5050591;28;8954;-59
2022/04/18 04:09:48;;;;;;;;;;;;;;;25.14;34.15;94142.50;5041690;28;8750;-59
2022/04/18 04:12:27;;;;;;;;;;;;;;;25.13;33.96;94140.28;5040234;28;7292;-59
2022/04/18 04:14:56;;;;;;;;;;;;;;;25.12;34.27;94138.78;5050429;28;9255;-59
2022/04/18 04:17:23;;;;;;;;;;;;;;;25.09;33.50;94137.06;5039687;28;7137;-61
2022/04/18 04:19:52;;;;;;;;;;;;;;;25.09;34.21;94135.06;5050651;28;7267;-60
2022/04/18 04:22:31;;;;;;;;;;;;;;;25.07;33.60;94139.56;5048530;28;9501;-60
2022/04/18 04:25:23;;;;;;;;;;;;;;;25.08;34.06;94143.81;5051659;28;7619;-60
2022/04/18 04:27:56;;;;;;;;;;;;;;;25.06;33.14;94138.81;5034814;28;7254;-58
2022/04/18 04:30:22;;;;;;;;;;;;;;;25.07;33.64;94145.09;5050963;28;9102;-58
2022/04/18 04:32:53;;;;;;;;;;;;;;;25.03;33.86;94139.13;5039577;28;7478;-59
2022/04/18 04:35:19;;;;;;;;;;;;;;;25.01;33.76;94144.38;5043804;28;7597;-61
2022/04/18 04:37:45;;;;;;;;;;;;;;;25.01;33.30;94138.88;5049331;28;7249;-60
2022/04/18 04:40:12;;;;;;;;;;;;;;;24.99;33.37;94144.88;5041167;28;6978;-60
2022/04/18 04:42:52;;;;;;;;;;;;;;;24.97;33.14;94136.41;5048043;28;9123;-60
2022/04/18 04:45:20;;;;;;;;;;;;;;;24.97;33.26;94132.91;5037434;28;9481;-60
2022/04/18 04:47:53;;;;;;;;;;;;;;;24.95;33.17;94132.66;5059501;28;9198;-60
2022/04/18 04:50:21;;;;;;;;;;;;;;;24.95;33.76;94132.66;5037369;28;9145;-60
2022/04/18 04:52:54;;;;;;;;;;;;;;;24.96;33.07;94129.41;5039622;28;7352;-60
2022/04/18 04:55:36;;;;;;;;;;;;;;;24.95;33.32;94130.66;5034857;28;9091;-60
2022/04/18 04:58:04;;;;;;;;;;;;;;;24.96;33.43;94132.16;5042326;28;9075;-60
2022/04/18 05:00:34;;;;;;;;;;;;;;;24.95;32.78;94140.91;5042395;28;7087;-60
2022/04/18 05:03:02;;;;;;;;;;;;;;;24.95;32.73;94140.91;5060181;28;9392;-60
2022/04/18 05:05:29;;;;;;;;;;;;;;;24.95;33.05;94138.16;5058817;28;7429;-60
2022/04/18 05:07:55;;;;;;;;;;;;;;;24.95;32.73;94132.66;5045437;28;9147;-60
2022/04/18 05:10:24;;;;;;;;;;;;;;;24.94;33.09;94134.69;5042501;28;9916;-60
2022/04/18 05:12:56;;;;;;;;;;;;;;;24.92;32.61;94139.97;5044077;28;7282;-61
2022/04/18 05:15:24;;;;;;;;;;;;;;;24.92;33.12;94139.19;5048695;28;7295;-60
2022/04/18 05:18:00;;;;;;;;;;;;;;;24.92;32.95;94134.44;5035871;28;7280;-60
2022/04/18 05:20:36;;;;;;;;;;;;;;;24.91;32.42;94129.44;5046773;28;9225;-60
2022/04/18 05:23:03;;;;;;;;;;;;;;;24.92;32.81;94136.44;5030320;28;9084;-60
2022/04/18 05:25:31;;;;;;;;;;;;;;;24.91;32.51;94138.44;5054297;28;9199;-60
2022/04/18 05:28:06;;;;;;;;;;;;;;;24.88;32.71;94144.25;5047043;28;9005;-59
2022/04/18 05:30:32;;;;;;;;;;;;;;;24.89;32.88;94129.22;5035590;28;6927;-59
2022/04/18 05:32:58;;;;;;;;;;;;;;;24.89;32.73;94135.47;5040797;28;7234;-60
2022/04/18 05:35:24;;;;;;;;;;;;;;;24.87;32.36;94131.72;5041873;28;7355;-60
2022/04/18 05:37:51;;;;;;;;;;;;;;;24.84;32.14;94144.50;5041923;28;7202;-59
2022/04/18 05:40:17;;;;;;;;;;;;;;;24.84;32.19;94141.75;5045081;28;7288;-60
2022/04/18 05:42:43;;;;;;;;;;;;;;;24.85;32.11;94139.75;5036562;28;7372;-59
2022/04/18 05:45:09;;;;;;;;;;;;;;;24.83;32.37;94139.50;5042301;28;9325;-59
2022/04/18 05:47:38;;;;;;;;;;;;;;;24.84;32.27;94152.03;5046185;28;9467;-60
2022/04/18 05:50:07;;;;;;;;;;;;;;;24.84;32.03;94150.00;5034271;28;7343;-60
2022/04/18 05:52:33;;;;;;;;;;;;;;;24.80;32.09;94152.28;5042666;28;9061;-60
2022/04/18 05:55:01;;;;;;;;;;;;;;;24.76;32.47;94154.56;5036683;28;9042;-60
2022/04/18 05:57:27;;;;;;;;;;;;;;;24.75;32.23;94155.09;5032148;28;8281;-60
2022/04/18 05:59:57;;;;;;;;;;;;;;;24.78;31.97;94156.78;5045398;28;7138;-60
2022/04/18 06:02:23;;;;;;;;;;;;;;;24.81;32.33;94155.78;5035540;28;7046;-60
2022/04/18 06:04:53;;;;;;;;;;;;;;;24.82;32.42;94160.78;5043243;28;7506;-59
2022/04/18 06:07:18;;;;;;;;;;;;;;;24.86;32.37;94155.00;5047164;28;9033;-60
2022/04/18 06:09:44;;;;;;;;;;;;;;;24.90;31.93;94161.72;5039660;28;6981;-60
2022/04/18 06:12:36;;;;;;;;;;;;;;;24.95;31.85;94154.66;5042203;28;7110;-60
2022/04/18 06:15:02;;;;;;;;;;;;;;;24.97;31.88;94154.94;5053075;28;7628;-61
2022/04/18 06:17:39;;;;;;;;;;;;;;;24.99;32.36;94155.16;5042053;28;7280;-61
2022/04/18 06:20:08;;;;;;;;;;;;;;;25.02;32.05;94151.38;5053274;28;9055;-60
2022/04/18 06:22:36;;;;;;;;;;;;;;;25.06;31.93;94149.06;5047150;28;9123;-61
2022/04/18 06:25:06;;;;;;;;;;;;;;;25.09;31.02;94148.06;5048454;28;7293;-61
2022/04/18 06:27:34;;;;;;;;;;;;;;;25.12;30.45;94144.31;5051219;28;8609;-61
2022/04/18 06:30:02;;;;;;;;;;;;;;;25.15;29.75;94146.00;5032000;28;6904;-60
2022/04/18 06:32:28;;;;;;;;;;;;;;;25.23;30.04;94146.94;5040411;28;7141;-61
2022/04/18 06:35:00;;;;;;;;;;;;;;;25.31;29.93;94145.13;5033455;28;7563;-61
2022/04/18 06:37:28;;;;;;;;;;;;;;;25.39;30.01;94143.28;5029047;28;9089;-60
2022/04/18 06:39:54;;;;;;;;;;;;;;;25.43;30.04;94146.53;5040004;28;7141;-61
2022/04/18 06:42:20;;;;;;;;;;;;;;;25.50;29.77;94148.72;5044299;28;7516;-61
2022/04/18 06:44:52;;;;;;;;;;;;;;;25.53;30.20;94142.19;5029664;28;9187;-61
2022/04/18 06:47:19;;;;;;;;;;;;;;;25.62;29.75;94150.09;5039714;28;7042;-61
2022/04/18 06:50:15;;;;;;;;;;;;;;;25.68;29.96;94150.78;5043865;28;7139;-60
2022/04/18 06:52:57;;;;;;;;;;;;;;;25.74;30.10;94150.72;4967802;28;9374;-60
2022/04/18 06:56:58;;;;;;;;;;;;;;;25.77;29.93;94149.69;4960566;28;7276;-61
2022/04/18 06:58:48;;;;;;;;;;;;;;;25.81;29.99;94145.38;4979023;28;9046;-60
2022/04/18 07:01:14;;;;;;;;;;;;;;;25.83;30.00;94140.09;4904134;29;7267;-61
2022/04/18 07:03:40;;;;;;;;;;;;;;;25.87;29.72;94146.06;4889515;29;7304;-61
2022/04/18 07:06:10;;;;;;;;;;;;;;;25.89;29.62;94143.53;4906376;29;7294;-61
2022/04/18 07:08:36;;;;;;;;;;;;;;;25.92;30.15;94148.03;4910550;29;7664;-61
2022/04/18 07:11:02;;;;;;;;;;;;;;;25.91;30.01;94138.25;4896820;29;8664;-60
2022/04/18 07:13:32;;;;;;;;;;;;;;;25.95;29.99;94144.22;4915738;29;7443;-61
2022/04/18 07:16:30;;;;;;;;;;;;;;;26.00;29.86;94148.16;4912873;29;8173;-61
2022/04/18 07:18:58;;;;;;;;;;;;;;;26.00;29.84;94154.44;4888247;29;7220;-61
2022/04/18 07:21:25;;;;;;;;;;;;;;;26.01;30.66;94150.41;4905995;29;7205;-61
2022/04/18 07:23:51;;;;;;;;;;;;;;;26.02;29.86;94159.41;4890742;29;9259;-61
2022/04/18 07:26:17;;;;;;;;;;;;;;;26.03;30.93;94163.69;4889179;29;8904;-61
2022/04/18 07:28:45;;;;;;;;;;;;;;;26.03;30.29;94156.13;4916940;29;9476;-61
2022/04/18 07:31:11;;;;;;;;;;;;;;;26.02;31.06;94162.94;4924266;28;7328;-61
2022/04/18 07:33:37;;;;;;;;;;;;;;;26.01;30.01;94163.44;4936723;28;8754;-61
2022/04/18 07:36:03;;;;;;;;;;;;;;;26.04;29.85;94167.91;4944850;29;6926;-61
2022/04/18 07:38:51;;;;;;;;;;;;;;;26.03;29.43;94166.44;5018378;28;9274;-61
2022/04/18 07:41:26;;;;;;;;;;;;;;;26.03;29.20;94174.69;5031712;28;7064;-61
2022/04/18 07:43:54;;;;;;;;;;;;;;;26.01;29.46;94168.97;5039050;28;9553;-61
2022/04/18 07:46:26;;;;;;;;;;;;;;;25.99;29.94;94169.47;5049159;28;7292;-61
2022/04/18 07:49:09;;;;;;;;;;;;;;;25.98;30.08;94156.97;5039237;28;8649;-61
2022/04/18 07:51:40;;;;;;;;;;;;;;;25.96;29.60;94156.75;5043775;28;7215;-61
2022/04/18 07:54:14;;;;;;;;;;;;;;;25.93;30.13;94155.00;5047638;28;8521;-61
2022/04/18 07:56:47;;;;;;;;;;;;;;;25.96;30.26;94162.25;5037821;28;7232;-61
2022/04/18 07:59:16;;;;;;;;;;;;;;;25.95;30.63;94163.50;5040000;28;6958;-61
2022/04/18 08:01:43;;;;;;;;;;;;;;;25.95;31.34;94165.50;5033985;28;7270;-61
2022/04/18 08:04:20;;;;;;;;;;;;;;;25.93;31.37;94162.53;5032647;28;7067;-61
2022/04/18 08:07:11;;;;;;;;;;;;;;;25.93;31.57;94160.53;5046299;28;9616;-61
2022/04/18 08:10:13;;;;;;;;;;;;;;;25.92;31.13;94155.53;5031525;28;9135;-61
2022/04/18 08:12:41;;;;;;;;;;;;;;;25.90;31.86;94158.06;5004110;28;7162;-61
2022/04/18 08:15:21;;;;;;;;;;;;;;;25.87;31.12;94148.06;5026079;28;7613;-61
2022/04/18 08:18:05;;;;;;;;;;;;;;;25.89;31.21;94148.28;5019773;28;7284;-61
2022/04/18 08:20:38;;;;;;;;;;;;;;;25.86;31.80;94147.31;5013161;28;7372;-61
2022/04/18 08:23:09;;;;;;;;;;;;;;;25.84;31.72;94149.09;5029083;28;9063;-61
2022/04/18 08:25:37;;;;;;;;;;;;;;;25.86;31.43;94150.06;4995002;28;8631;-61
2022/04/18 08:28:04;;;;;;;;;;;;;;;25.85;31.94;94145.84;5013773;28;7261;-61
2022/04/18 08:30:39;;;;;;;;;;;;;;;25.85;32.35;94150.59;5028417;28;7185;-61
2022/04/18 08:33:08;;;;;;;;;;;;;;;25.83;32.43;94144.88;5012188;28;7260;-61
2022/04/18 08:35:36;;;;;;;;;;;;;;;25.82;32.35;94144.09;4994056;28;7241;-61
2022/04/18 08:38:10;;;;;;;;;;;;;;;25.82;31.79;94146.88;5015378;28;7185;-61
2022/04/18 08:40:51;;;;;;;;;;;;;;;25.83;32.79;94158.63;5031521;28;7271;-61
2022/04/18 08:43:26;;;;;;;;;;;;;;;25.81;32.30;94145.38;5031523;28;9125;-58
2022/04/18 08:45:52;;;;;;;;;;;;;;;25.81;32.13;94145.38;5017830;28;9090;-59
2022/04/18 08:53:59;;;;;;;;;;;;;;;25.80;32.33;94140.38;5043586;28;7316;-58
2022/04/18 08:56:26;;;;;;;;;;;;;;;25.77;32.31;94138.69;5036224;28;9249;-59
2022/04/18 08:58:52;;;;;;;;;;;;;;;25.77;32.75;94133.91;5044888;28;7414;-58
2022/04/18 09:01:18;;;;;;;;;;;;;;;25.77;32.91;94136.66;5042008;28;7070;-59
2022/04/18 09:03:47;;;;;;;;;;;;;;;25.76;33.21;94135.16;5030514;28;7363;-59
2022/04/18 09:06:14;;;;;;;;;;;;;;;25.75;32.92;94135.69;5032179;28;6996;-59
2022/04/18 09:08:46;;;;;;;;;;;;;;;25.75;32.53;94141.94;5036609;28;7914;-58
2022/04/18 09:11:29;;;;;;;;;;;;;;;25.72;32.47;94140.22;5046747;28;7918;-58
2022/04/18 09:14:25;;;;;;;;;;;;;;;25.73;33.14;94132.72;5046543;28;7886;-59
2022/04/18 09:16:51;;;;;;;;;;;;;;;25.70;32.78;94128.97;4955871;28;9087;-59
2022/04/18 09:19:17;;;;;;;;;;;;;;;25.73;32.74;94140.97;4980100;28;8757;-59
2022/04/18 09:21:55;;;;;;;;;;;;;;;25.71;33.13;94127.69;4961690;28;9027;-59
2022/04/18 09:24:24;;;;;;;;;;;;;;;25.69;32.39;94126.72;4960615;28;8159;-59
2022/04/18 09:26:51;;;;;;;;;;;;;;;25.69;33.09;94127.47;4957527;28;6975;-58
2022/04/18 09:29:17;;;;;;;;;;;;;;;25.70;33.02;94128.22;4960128;28;9038;-59
2022/04/18 09:31:43;;;;;;;;;;;;;;;25.70;32.99;94134.50;4976676;28;7878;-59
2022/04/18 09:34:09;;;;;;;;;;;;;;;25.70;32.70;94134.50;4951293;28;8944;-58
2022/04/18 09:36:35;;;;;;;;;;;;;;;25.69;32.90;94124.72;4984283;28;9037;-58
2022/04/18 09:39:02;;;;;;;;;;;;;;;25.68;33.19;94122.50;4980166;28;7593;-59
2022/04/18 09:41:30;;;;;;;;;;;;;;;25.67;32.92;94123.75;4951085;28;9426;-59
2022/04/18 09:43:59;;;;;;;;;;;;;;;25.67;33.37;94135.50;4967331;28;7081;-58
2022/04/18 09:46:28;;;;;;;;;;;;;;;25.67;32.99;94126.50;4961927;28;7855;-58
2022/04/18 09:49:18;;;;;;;;;;;;;;;25.66;32.83;94127.78;4974613;28;7144;-58
2022/04/18 09:51:45;;;;;;;;;;;;;;;25.65;33.12;94126.28;4986104;28;7407;-58
2022/04/18 09:54:20;;;;;;;;;;;;;;;25.63;32.93;94117.78;5032759;28;7106;-59
2022/04/18 09:56:52;;;;;;;;;;;;;;;25.63;32.79;94118.53;5044578;28;9359;-59
2022/04/18 09:59:19;;;;;;;;;;;;;;;25.63;32.77;94118.53;5038632;28;7265;-59
2022/04/18 10:01:47;;;;;;;;;;;;;;;25.64;33.75;94114.53;5037819;28;7500;-58
2022/04/18 10:04:15;;;;;;;;;;;;;;;25.64;33.28;94116.53;5047552;28;7212;-58
2022/04/18 10:06:50;;;;;;;;;;;;;;;25.64;33.68;94117.28;5037664;28;7515;-61
2022/04/18 10:09:43;;;;;;;;;;;;;;;25.66;33.71;94111.25;5046683;28;9176;-60
2022/04/18 10:12:45;;;;;;;;;;;;;;;25.65;33.22;94110.50;4967787;28;7214;-60
2022/04/18 10:15:11;;;;;;;;;;;;;;;25.66;33.18;94106.50;4928664;28;7312;-60
2022/04/18 10:17:52;;;;;;;;;;;;;;;25.65;33.75;94104.25;4935016;28;8723;-60
2022/04/18 10:20:34;;;;;;;;;;;;;;;25.66;33.22;94111.25;4923053;29;7051;-61
2022/04/18 10:23:08;;;;;;;;;;;;;;;25.64;33.17;94105.53;4932494;28;7063;-60
2022/04/18 10:26:04;;;;;;;;;;;;;;;25.62;33.31;94100.50;4940876;28;7380;-61
2022/04/18 10:29:03;;;;;;;;;;;;;;;25.65;33.55;94104.25;4926921;28;7248;-61
2022/04/18 10:31:39;;;;;;;;;;;;;;;25.65;33.19;94099.47;4846292;29;8824;-61
2022/04/18 10:34:06;;;;;;;;;;;;;;;25.68;33.27;94097.69;4875252;29;7138;-61
2022/04/18 10:36:35;;;;;;;;;;;;;;;25.67;33.27;94096.19;4859990;29;7148;-60
2022/04/18 10:39:04;;;;;;;;;;;;;;;25.68;33.37;94092.94;4875814;29;7057;-61
2022/04/18 10:41:36;;;;;;;;;;;;;;;25.68;33.24;94097.69;4860171;29;9191;-60
2022/04/18 10:44:10;;;;;;;;;;;;;;;25.67;33.26;94094.19;4876103;29;6999;-60
2022/04/18 10:46:38;;;;;;;;;;;;;;;25.68;33.12;94086.69;4874914;29;9442;-61
2022/04/18 10:49:39;;;;;;;;;;;;;;;25.70;33.51;94090.41;4912332;28;9380;-61
2022/04/18 10:52:09;;;;;;;;;;;;;;;25.67;33.58;94087.94;4942578;28;9665;-60
2022/04/18 10:54:36;;;;;;;;;;;;;;;25.68;33.17;94089.44;4934927;28;7276;-61
2022/04/18 10:57:14;;;;;;;;;;;;;;;25.67;33.67;94091.44;4929155;28;9470;-60
2022/04/18 10:59:45;;;;;;;;;;;;;;;25.68;33.18;94084.69;4931154;28;7878;-60
2022/04/18 11:02:42;;;;;;;;;;;;;;;25.68;34.13;94083.94;4941603;28;7332;-60
2022/04/18 11:05:36;;;;;;;;;;;;;;;25.69;33.46;94091.66;4939265;28;7070;-60
2022/04/18 11:08:21;;;;;;;;;;;;;;;25.69;33.72;94088.91;4964339;28;7351;-61
2022/04/18 11:10:47;;;;;;;;;;;;;;;25.70;33.31;94084.91;4984361;28;7238;-60
2022/04/18 11:13:14;;;;;;;;;;;;;;;25.71;33.20;94080.16;4960480;28;7273;-60
2022/04/18 11:15:40;;;;;;;;;;;;;;;25.70;33.52;94079.41;4980567;28;9091;-60
2022/04/18 11:18:26;;;;;;;;;;;;;;;25.72;33.51;94076.88;4977689;28;8521;-61
2022/04/18 11:20:54;;;;;;;;;;;;;;;25.74;33.82;94079.84;4986090;28;9206;-61
2022/04/18 11:23:25;;;;;;;;;;;;;;;25.73;33.83;94083.84;4975931;28;7195;-60
2022/04/18 11:26:07;;;;;;;;;;;;;;;25.74;33.34;94074.34;4977424;28;7049;-60
2022/04/18 11:28:43;;;;;;;;;;;;;;;25.75;33.65;94075.09;5036758;28;9192;-60
2022/04/18 11:31:18;;;;;;;;;;;;;;;25.75;33.89;94075.09;5043075;28;9111;-60
2022/04/18 11:33:44;;;;;;;;;;;;;;;25.73;34.09;94074.88;5045012;28;9028;-60
2022/04/18 11:36:11;;;;;;;;;;;;;;;25.77;33.87;94069.81;5043941;28;7068;-60
2022/04/18 11:38:37;;;;;;;;;;;;;;;25.75;33.14;94073.06;5043157;28;9381;-60
2022/04/18 11:41:18;;;;;;;;;;;;;;;25.76;33.44;94071.81;5045758;28;7245;-60
2022/04/18 11:43:58;;;;;;;;;;;;;;;25.76;34.29;94066.28;5055768;28;7260;-60
2022/04/18 11:46:29;;;;;;;;;;;;;;;25.76;33.81;94062.78;5038748;28;8855;-61
2022/04/18 11:48:56;;;;;;;;;;;;;;;25.78;34.26;94055.50;5048644;28;9060;-60
2022/04/18 11:51:42;;;;;;;;;;;;;;;25.79;34.08;94059.00;5031305;28;10177;-60
2022/04/18 11:54:09;;;;;;;;;;;;;;;25.80;34.05;94044.72;5059219;28;7224;-60
2022/04/18 11:56:35;;;;;;;;;;;;;;;25.79;33.45;94054.25;5049163;28;9529;-60
2022/04/18 11:59:51;;;;;;;;;;;;;;;25.84;33.64;94053.41;5049202;28;8791;-61
2022/04/18 12:08:26;;;;;;;;;;;;;;;25.85;33.78;94032.13;4962770;28;9265;-60
2022/04/18 12:10:54;;;;;;;;;;;;;;;25.88;33.62;94034.56;4967790;28;9744;-61
2022/04/18 12:13:21;;;;;;;;;;;;;;;25.88;33.55;94037.31;4972712;28;8031;-60
2022/04/18 12:15:48;;;;;;;;;;;;;;;25.86;33.67;94026.09;4956950;28;9710;-60
2022/04/18 12:18:17;;;;;;;;;;;;;;;25.86;34.34;94030.88;4958334;28;7638;-60
2022/04/18 12:20:53;;;;;;;;;;;;;;;25.86;33.95;94031.59;4972874;28;7340;-60
2022/04/18 12:23:23;;;;;;;;;;;;;;;25.88;34.14;94026.31;4972990;28;7059;-61
2022/04/18 12:26:01;;;;;;;;;;;;;;;25.90;33.87;94023.78;4956430;28;7271;-60
2022/04/18 12:28:30;;;;;;;;;;;;;;;25.90;33.90;94023.06;4969728;28;8973;-60
2022/04/18 12:30:57;;;;;;;;;;;;;;;25.91;34.09;94017.00;4964753;28;7157;-60
2022/04/18 12:33:25;;;;;;;;;;;;;;;25.92;33.42;94017.75;4955605;28;9544;-61
2022/04/18 12:35:53;;;;;;;;;;;;;;;25.92;34.34;94021.25;4953506;28;9242;-60
2022/04/18 12:38:28;;;;;;;;;;;;;;;25.93;33.60;94013.72;4982977;28;7120;-60
2022/04/18 12:41:02;;;;;;;;;;;;;;;25.96;34.33;94013.44;5050068;28;7682;-60
2022/04/18 12:43:30;;;;;;;;;;;;;;;25.98;33.82;94008.16;5065289;28;7138;-60
2022/04/18 12:46:25;;;;;;;;;;;;;;;25.98;34.45;94013.66;5049558;28;7231;-61
2022/04/18 12:48:55;;;;;;;;;;;;;;;25.97;33.67;94008.66;4980180;28;9382;-61
2022/04/18 12:51:38;;;;;;;;;;;;;;;25.96;34.01;94012.69;5009888;28;7238;-60
2022/04/18 12:54:24;;;;;;;;;;;;;;;25.91;33.45;94000.47;5002458;28;6938;-61
2022/04/18 12:56:51;;;;;;;;;;;;;;;25.90;34.03;93998.97;4991083;28;7388;-60
2022/04/18 12:59:24;;;;;;;;;;;;;;;25.91;34.09;94002.47;4988079;28;9433;-60
2022/04/18 13:01:50;;;;;;;;;;;;;;;25.89;34.48;93996.75;4986534;28;8789;-60
2022/04/18 13:04:23;;;;;;;;;;;;;;;25.90;34.25;93998.97;5005368;28;9631;-60
2022/04/18 13:07:04;;;;;;;;;;;;;;;25.95;33.94;93989.91;5004403;28;7182;-60
2022/04/18 13:09:30;;;;;;;;;;;;;;;26.00;34.04;93991.09;4998006;28;9016;-61
2022/04/18 13:12:09;;;;;;;;;;;;;;;26.04;34.56;93988.75;4990158;28;7062;-61
2022/04/18 13:15:06;;;;;;;;;;;;;;;26.06;33.48;93989.75;4989719;28;8940;-60
2022/04/18 13:17:53;;;;;;;;;;;;;;;26.09;34.29;93987.97;4991418;28;9438;-60
2022/04/18 13:20:19;;;;;;;;;;;;;;;26.10;34.01;93978.44;4988310;28;7140;-61
2022/04/18 13:22:47;;;;;;;;;;;;;;;26.11;33.69;93964.13;5004628;28;9170;-60
2022/04/18 13:25:25;;;;;;;;;;;;;;;26.13;34.34;93967.13;4994985;28;7276;-60
2022/04/18 13:27:55;;;;;;;;;;;;;;;26.16;33.86;93957.06;5035988;28;9036;-59
2022/04/18 13:30:27;;;;;;;;;;;;;;;26.15;34.14;93959.06;5042455;28;7390;-60
2022/04/18 13:32:53;;;;;;;;;;;;;;;26.21;33.61;93961.00;5037452;28;8556;-60
2022/04/18 13:35:23;;;;;;;;;;;;;;;26.23;33.86;93963.97;5043376;28;7252;-60
2022/04/18 13:37:51;;;;;;;;;;;;;;;26.24;34.34;93959.94;5029843;28;7283;-60
2022/04/18 13:40:17;;;;;;;;;;;;;;;26.22;34.18;93954.94;5055210;28;7511;-60
2022/04/18 13:42:50;;;;;;;;;;;;;;;26.27;34.31;93947.88;5048558;28;7075;-60
2022/04/18 13:45:24;;;;;;;;;;;;;;;26.28;34.71;93947.34;5038390;28;6944;-60